sensor_id;sensor_type;location;lat;lon;timestamp;P1;durP1;ratioP1;P2;durP2;ratioP2
19863;SDS011;10094;48.820;9.226;2023-07-09T00:00:14;7.22;;;4.70;;
19863;SDS011;10094;48.820;9.226;2023-07-09T00:07:00;7.13;;;5.47;;
19863;SDS011;10094;48.820;9.226;2023-07-09T00:13:44;9.15;;;5.38;;
19863;SDS011;10094;48.820;9.226;2023-07-09T00:20:27;13.95;;;7.60;;
19863;SDS011;10094;48.820;9.226;2023-07-09T00:27:10;13.90;;;8.02;;
19863;SDS011;10094;48.820;9.226;2023-07-09T00:33:54;12.13;;;7.35;;
19863;SDS011;10094;48.820;9.226;2023-07-09T00:40:37;8.70;;;6.50;;
19863;SDS011;10094;48.820;9.226;2023-07-09T00:47:41;10.00;;;5.97;;
19863;SDS011;10094;48.820;9.226;2023-07-09T00:54:37;10.23;;;7.15;;
19863;SDS011;10094;48.820;9.226;2023-07-09T01:01:25;11.20;;;5.63;;
19863;SDS011;10094;48.820;9.226;2023-07-09T01:08:10;11.45;;;5.63;;
19863;SDS011;10094;48.820;9.226;2023-07-09T01:14:57;11.68;;;6.53;;
19863;SDS011;10094;48.820;9.226;2023-07-09T01:21:42;9.02;;;6.25;;
19863;SDS011;10094;48.820;9.226;2023-07-09T01:28:26;10.73;;;6.35;;
19863;SDS011;10094;48.820;9.226;2023-07-09T01:35:12;8.30;;;5.30;;
19863;SDS011;10094;48.820;9.226;2023-07-09T01:41:57;8.27;;;5.43;;
19863;SDS011;10094;48.820;9.226;2023-07-09T01:48:39;5.75;;;4.97;;
19863;SDS011;10094;48.820;9.226;2023-07-09T01:55:26;7.47;;;4.55;;
19863;SDS011;10094;48.820;9.226;2023-07-09T02:02:12;6.47;;;4.38;;
19863;SDS011;10094;48.820;9.226;2023-07-09T02:09:01;5.93;;;4.60;;
19863;SDS011;10094;48.820;9.226;2023-07-09T02:15:43;7.13;;;5.38;;
19863;SDS011;10094;48.820;9.226;2023-07-09T02:22:26;9.60;;;5.50;;
19863;SDS011;10094;48.820;9.226;2023-07-09T02:29:09;7.68;;;5.57;;
19863;SDS011;10094;48.820;9.226;2023-07-09T02:35:51;9.88;;;6.60;;
19863;SDS011;10094;48.820;9.226;2023-07-09T02:42:35;8.93;;;6.50;;
19863;SDS011;10094;48.820;9.226;2023-07-09T02:49:17;6.72;;;5.72;;
19863;SDS011;10094;48.820;9.226;2023-07-09T02:56:02;7.03;;;5.50;;
19863;SDS011;10094;48.820;9.226;2023-07-09T03:02:45;7.85;;;5.25;;
19863;SDS011;10094;48.820;9.226;2023-07-09T03:09:27;8.65;;;5.75;;
19863;SDS011;10094;48.820;9.226;2023-07-09T03:16:11;7.82;;;5.25;;
19863;SDS011;10094;48.820;9.226;2023-07-09T03:22:54;8.68;;;6.22;;
19863;SDS011;10094;48.820;9.226;2023-07-09T03:29:36;7.93;;;4.97;;
19863;SDS011;10094;48.820;9.226;2023-07-09T03:36:19;6.25;;;4.20;;
19863;SDS011;10094;48.820;9.226;2023-07-09T03:43:02;6.15;;;4.70;;
19863;SDS011;10094;48.820;9.226;2023-07-09T03:49:44;6.60;;;4.43;;
19863;SDS011;10094;48.820;9.226;2023-07-09T03:56:27;9.45;;;4.30;;
19863;SDS011;10094;48.820;9.226;2023-07-09T04:03:09;6.35;;;4.43;;
19863;SDS011;10094;48.820;9.226;2023-07-09T04:09:52;5.80;;;4.32;;
19863;SDS011;10094;48.820;9.226;2023-07-09T04:16:34;6.22;;;4.32;;
19863;SDS011;10094;48.820;9.226;2023-07-09T04:23:17;6.75;;;4.45;;
19863;SDS011;10094;48.820;9.226;2023-07-09T04:30:01;7.28;;;4.55;;
19863;SDS011;10094;48.820;9.226;2023-07-09T04:36:44;8.80;;;5.05;;
19863;SDS011;10094;48.820;9.226;2023-07-09T04:43:27;5.88;;;4.38;;
19863;SDS011;10094;48.820;9.226;2023-07-09T04:50:09;7.22;;;4.18;;
19863;SDS011;10094;48.820;9.226;2023-07-09T04:56:53;6.13;;;4.43;;
19863;SDS011;10094;48.820;9.226;2023-07-09T05:03:37;5.70;;;4.50;;
19863;SDS011;10094;48.820;9.226;2023-07-09T05:10:20;6.57;;;4.30;;
19863;SDS011;10094;48.820;9.226;2023-07-09T05:17:03;10.68;;;4.80;;
19863;SDS011;10094;48.820;9.226;2023-07-09T05:23:46;7.07;;;4.88;;
19863;SDS011;10094;48.820;9.226;2023-07-09T05:30:28;6.25;;;4.40;;
19863;SDS011;10094;48.820;9.226;2023-07-09T05:37:11;7.00;;;4.82;;
19863;SDS011;10094;48.820;9.226;2023-07-09T05:43:53;5.28;;;4.47;;
19863;SDS011;10094;48.820;9.226;2023-07-09T05:50:36;5.05;;;4.45;;
19863;SDS011;10094;48.820;9.226;2023-07-09T05:57:18;6.47;;;4.32;;
19863;SDS011;10094;48.820;9.226;2023-07-09T06:04:01;5.20;;;4.70;;
19863;SDS011;10094;48.820;9.226;2023-07-09T06:10:57;6.03;;;4.57;;
19863;SDS011;10094;48.820;9.226;2023-07-09T06:17:41;5.38;;;4.80;;
19863;SDS011;10094;48.820;9.226;2023-07-09T06:24:24;5.45;;;4.45;;
19863;SDS011;10094;48.820;9.226;2023-07-09T06:31:07;5.57;;;4.55;;
19863;SDS011;10094;48.820;9.226;2023-07-09T06:37:49;5.25;;;4.75;;
19863;SDS011;10094;48.820;9.226;2023-07-09T06:44:32;4.93;;;4.43;;
19863;SDS011;10094;48.820;9.226;2023-07-09T06:51:14;7.18;;;4.65;;
19863;SDS011;10094;48.820;9.226;2023-07-09T06:57:57;8.27;;;4.90;;
19863;SDS011;10094;48.820;9.226;2023-07-09T07:04:39;6.43;;;4.78;;
19863;SDS011;10094;48.820;9.226;2023-07-09T07:11:23;7.07;;;4.78;;
19863;SDS011;10094;48.820;9.226;2023-07-09T07:18:07;6.82;;;5.32;;
19863;SDS011;10094;48.820;9.226;2023-07-09T07:24:50;5.80;;;5.10;;
19863;SDS011;10094;48.820;9.226;2023-07-09T07:31:32;6.00;;;5.10;;
19863;SDS011;10094;48.820;9.226;2023-07-09T07:38:15;6.55;;;5.45;;
19863;SDS011;10094;48.820;9.226;2023-07-09T07:44:57;8.90;;;5.28;;
19863;SDS011;10094;48.820;9.226;2023-07-09T07:51:40;7.97;;;4.85;;
19863;SDS011;10094;48.820;9.226;2023-07-09T07:58:23;7.03;;;5.32;;
19863;SDS011;10094;48.820;9.226;2023-07-09T08:05:07;6.60;;;4.95;;
19863;SDS011;10094;48.820;9.226;2023-07-09T08:11:50;7.70;;;4.90;;
19863;SDS011;10094;48.820;9.226;2023-07-09T08:18:33;6.50;;;4.43;;
19863;SDS011;10094;48.820;9.226;2023-07-09T08:25:16;5.07;;;4.40;;
19863;SDS011;10094;48.820;9.226;2023-07-09T08:31:58;6.10;;;4.40;;
19863;SDS011;10094;48.820;9.226;2023-07-09T08:38:41;6.75;;;4.78;;
19863;SDS011;10094;48.820;9.226;2023-07-09T08:52:23;6.68;;;5.10;;
19863;SDS011;10094;48.820;9.226;2023-07-09T08:59:18;6.45;;;4.32;;
19863;SDS011;10094;48.820;9.226;2023-07-09T09:06:01;5.03;;;4.50;;
19863;SDS011;10094;48.820;9.226;2023-07-09T09:19:41;6.18;;;4.20;;
19863;SDS011;10094;48.820;9.226;2023-07-09T09:26:31;7.72;;;4.55;;
19863;SDS011;10094;48.820;9.226;2023-07-09T09:33:16;4.78;;;4.22;;
19863;SDS011;10094;48.820;9.226;2023-07-09T09:39:59;6.28;;;4.28;;
19863;SDS011;10094;48.820;9.226;2023-07-09T09:46:45;5.30;;;4.45;;
19863;SDS011;10094;48.820;9.226;2023-07-09T09:53:30;4.72;;;4.18;;
19863;SDS011;10094;48.820;9.226;2023-07-09T10:00:23;5.47;;;4.43;;
19863;SDS011;10094;48.820;9.226;2023-07-09T10:07:08;4.60;;;4.07;;
19863;SDS011;10094;48.820;9.226;2023-07-09T10:13:50;5.50;;;4.15;;
19863;SDS011;10094;48.820;9.226;2023-07-09T10:20:38;5.60;;;3.38;;
19863;SDS011;10094;48.820;9.226;2023-07-09T10:34:55;4.32;;;3.33;;
19863;SDS011;10094;48.820;9.226;2023-07-09T10:41:44;7.90;;;4.97;;
19863;SDS011;10094;48.820;9.226;2023-07-09T10:48:35;5.55;;;4.00;;
19863;SDS011;10094;48.820;9.226;2023-07-09T10:55:50;5.47;;;3.97;;
19863;SDS011;10094;48.820;9.226;2023-07-09T11:02:38;7.68;;;3.72;;
19863;SDS011;10094;48.820;9.226;2023-07-09T11:09:26;5.40;;;4.18;;
19863;SDS011;10094;48.820;9.226;2023-07-09T11:16:14;6.18;;;4.18;;
19863;SDS011;10094;48.820;9.226;2023-07-09T11:23:04;7.55;;;4.68;;
19863;SDS011;10094;48.820;9.226;2023-07-09T11:29:55;5.75;;;4.00;;
19863;SDS011;10094;48.820;9.226;2023-07-09T11:36:58;6.32;;;3.80;;
19863;SDS011;10094;48.820;9.226;2023-07-09T11:43:46;6.63;;;4.50;;
19863;SDS011;10094;48.820;9.226;2023-07-09T11:50:35;6.18;;;4.32;;
19863;SDS011;10094;48.820;9.226;2023-07-09T11:57:22;6.32;;;4.78;;
19863;SDS011;10094;48.820;9.226;2023-07-09T12:04:04;8.60;;;4.78;;
19863;SDS011;10094;48.820;9.226;2023-07-09T12:10:47;8.30;;;4.50;;
19863;SDS011;10094;48.820;9.226;2023-07-09T12:17:30;6.53;;;4.57;;
19863;SDS011;10094;48.820;9.226;2023-07-09T12:31:04;6.25;;;4.40;;
19863;SDS011;10094;48.820;9.226;2023-07-09T12:37:54;6.65;;;4.38;;
19863;SDS011;10094;48.820;9.226;2023-07-09T12:44:39;9.48;;;5.00;;
19863;SDS011;10094;48.820;9.226;2023-07-09T12:51:27;7.85;;;4.70;;
19863;SDS011;10094;48.820;9.226;2023-07-09T12:58:13;7.72;;;4.78;;
19863;SDS011;10094;48.820;9.226;2023-07-09T13:05:05;8.40;;;4.65;;
19863;SDS011;10094;48.820;9.226;2023-07-09T13:11:58;6.85;;;4.80;;
19863;SDS011;10094;48.820;9.226;2023-07-09T13:18:40;10.48;;;4.97;;
19863;SDS011;10094;48.820;9.226;2023-07-09T13:25:23;9.75;;;4.50;;
19863;SDS011;10094;48.820;9.226;2023-07-09T13:32:22;8.70;;;4.45;;
19863;SDS011;10094;48.820;9.226;2023-07-09T13:39:07;7.15;;;4.75;;
19863;SDS011;10094;48.820;9.226;2023-07-09T13:45:51;8.63;;;5.00;;
19863;SDS011;10094;48.820;9.226;2023-07-09T13:52:34;8.98;;;5.38;;
19863;SDS011;10094;48.820;9.226;2023-07-09T14:06:02;5.63;;;4.32;;
19863;SDS011;10094;48.820;9.226;2023-07-09T14:12:45;8.02;;;4.35;;
19863;SDS011;10094;48.820;9.226;2023-07-09T14:19:29;6.18;;;4.07;;
19863;SDS011;10094;48.820;9.226;2023-07-09T14:26:11;8.55;;;4.38;;
19863;SDS011;10094;48.820;9.226;2023-07-09T14:32:54;6.78;;;4.03;;
19863;SDS011;10094;48.820;9.226;2023-07-09T14:39:36;8.50;;;4.10;;
19863;SDS011;10094;48.820;9.226;2023-07-09T14:46:18;7.57;;;4.10;;
19863;SDS011;10094;48.820;9.226;2023-07-09T14:53:01;7.22;;;4.28;;
19863;SDS011;10094;48.820;9.226;2023-07-09T14:59:45;5.15;;;4.50;;
19863;SDS011;10094;48.820;9.226;2023-07-09T15:06:28;6.60;;;4.30;;
19863;SDS011;10094;48.820;9.226;2023-07-09T15:13:14;8.27;;;4.65;;
19863;SDS011;10094;48.820;9.226;2023-07-09T15:20:19;5.43;;;4.18;;
19863;SDS011;10094;48.820;9.226;2023-07-09T15:27:04;5.43;;;3.90;;
19863;SDS011;10094;48.820;9.226;2023-07-09T15:33:47;6.60;;;3.95;;
19863;SDS011;10094;48.820;9.226;2023-07-09T15:40:29;5.88;;;3.83;;
19863;SDS011;10094;48.820;9.226;2023-07-09T15:47:16;5.40;;;4.13;;
19863;SDS011;10094;48.820;9.226;2023-07-09T15:54:00;6.82;;;4.90;;
19863;SDS011;10094;48.820;9.226;2023-07-09T16:00:45;8.13;;;6.20;;
19863;SDS011;10094;48.820;9.226;2023-07-09T16:07:27;5.63;;;4.05;;
19863;SDS011;10094;48.820;9.226;2023-07-09T16:20:58;6.30;;;4.00;;
19863;SDS011;10094;48.820;9.226;2023-07-09T16:27:42;8.25;;;4.53;;
19863;SDS011;10094;48.820;9.226;2023-07-09T16:34:26;5.82;;;3.60;;
19863;SDS011;10094;48.820;9.226;2023-07-09T16:41:11;6.95;;;3.78;;
19863;SDS011;10094;48.820;9.226;2023-07-09T16:47:56;5.13;;;3.85;;
19863;SDS011;10094;48.820;9.226;2023-07-09T16:54:39;6.53;;;4.15;;
19863;SDS011;10094;48.820;9.226;2023-07-09T17:01:21;6.85;;;4.22;;
19863;SDS011;10094;48.820;9.226;2023-07-09T17:08:04;4.40;;;3.60;;
19863;SDS011;10094;48.820;9.226;2023-07-09T17:14:47;6.93;;;3.88;;
19863;SDS011;10094;48.820;9.226;2023-07-09T17:21:29;6.07;;;3.70;;
19863;SDS011;10094;48.820;9.226;2023-07-09T17:28:15;7.13;;;4.13;;
19863;SDS011;10094;48.820;9.226;2023-07-09T17:34:59;4.35;;;3.60;;
19863;SDS011;10094;48.820;9.226;2023-07-09T17:41:42;5.97;;;3.65;;
19863;SDS011;10094;48.820;9.226;2023-07-09T17:48:25;4.38;;;3.38;;
19863;SDS011;10094;48.820;9.226;2023-07-09T17:55:10;5.85;;;3.78;;
19863;SDS011;10094;48.820;9.226;2023-07-09T18:02:13;4.88;;;3.60;;
19863;SDS011;10094;48.820;9.226;2023-07-09T18:08:58;5.80;;;4.47;;
19863;SDS011;10094;48.820;9.226;2023-07-09T18:15:43;6.47;;;4.50;;
19863;SDS011;10094;48.820;9.226;2023-07-09T18:22:25;7.55;;;4.80;;
19863;SDS011;10094;48.820;9.226;2023-07-09T18:29:47;11.00;;;7.28;;
19863;SDS011;10094;48.820;9.226;2023-07-09T18:36:21;8.50;;;7.60;;
19863;SDS011;10094;48.820;9.226;2023-07-09T18:43:14;7.53;;;6.25;;
19863;SDS011;10094;48.820;9.226;2023-07-09T18:50:14;6.80;;;4.88;;
19863;SDS011;10094;48.820;9.226;2023-07-09T18:56:59;7.05;;;5.25;;
19863;SDS011;10094;48.820;9.226;2023-07-09T19:03:41;6.07;;;4.57;;
19863;SDS011;10094;48.820;9.226;2023-07-09T19:10:26;6.65;;;5.35;;
19863;SDS011;10094;48.820;9.226;2023-07-09T19:17:12;7.05;;;5.05;;
19863;SDS011;10094;48.820;9.226;2023-07-09T19:23:58;6.38;;;5.18;;
19863;SDS011;10094;48.820;9.226;2023-07-09T19:30:42;7.68;;;5.18;;
19863;SDS011;10094;48.820;9.226;2023-07-09T19:37:26;8.88;;;5.43;;
19863;SDS011;10094;48.820;9.226;2023-07-09T19:44:10;6.28;;;5.22;;
19863;SDS011;10094;48.820;9.226;2023-07-09T19:50:53;9.70;;;5.60;;
19863;SDS011;10094;48.820;9.226;2023-07-09T19:57:35;9.73;;;5.50;;
19863;SDS011;10094;48.820;9.226;2023-07-09T20:04:18;6.88;;;4.90;;
19863;SDS011;10094;48.820;9.226;2023-07-09T20:11:01;6.40;;;4.97;;
19863;SDS011;10094;48.820;9.226;2023-07-09T20:17:46;6.55;;;5.15;;
19863;SDS011;10094;48.820;9.226;2023-07-09T20:24:29;7.72;;;4.65;;
19863;SDS011;10094;48.820;9.226;2023-07-09T20:31:22;9.82;;;4.50;;
19863;SDS011;10094;48.820;9.226;2023-07-09T20:38:13;7.75;;;5.35;;
19863;SDS011;10094;48.820;9.226;2023-07-09T20:44:56;10.02;;;6.05;;
19863;SDS011;10094;48.820;9.226;2023-07-09T20:51:39;7.95;;;4.88;;
19863;SDS011;10094;48.820;9.226;2023-07-09T20:58:22;11.15;;;5.30;;
19863;SDS011;10094;48.820;9.226;2023-07-09T21:05:06;9.13;;;5.35;;
19863;SDS011;10094;48.820;9.226;2023-07-09T21:11:49;8.48;;;5.63;;
19863;SDS011;10094;48.820;9.226;2023-07-09T21:18:32;10.18;;;5.65;;
19863;SDS011;10094;48.820;9.226;2023-07-09T21:25:17;9.25;;;6.32;;
19863;SDS011;10094;48.820;9.226;2023-07-09T21:32:14;14.65;;;7.35;;
19863;SDS011;10094;48.820;9.226;2023-07-09T21:39:04;7.95;;;5.82;;
19863;SDS011;10094;48.820;9.226;2023-07-09T21:45:56;10.02;;;6.03;;
19863;SDS011;10094;48.820;9.226;2023-07-09T21:52:39;9.77;;;6.82;;
19863;SDS011;10094;48.820;9.226;2023-07-09T21:59:28;9.90;;;7.07;;
19863;SDS011;10094;48.820;9.226;2023-07-09T22:06:11;8.27;;;6.78;;
19863;SDS011;10094;48.820;9.226;2023-07-09T22:12:54;9.32;;;5.75;;
19863;SDS011;10094;48.820;9.226;2023-07-09T22:19:38;10.60;;;6.43;;
19863;SDS011;10094;48.820;9.226;2023-07-09T22:26:26;9.77;;;6.20;;
19863;SDS011;10094;48.820;9.226;2023-07-09T22:33:13;11.32;;;6.65;;
19863;SDS011;10094;48.820;9.226;2023-07-09T22:39:56;9.45;;;6.13;;
19863;SDS011;10094;48.820;9.226;2023-07-09T22:46:39;7.30;;;5.43;;
19863;SDS011;10094;48.820;9.226;2023-07-09T22:53:23;10.60;;;5.95;;
19863;SDS011;10094;48.820;9.226;2023-07-09T23:00:07;9.90;;;6.32;;
19863;SDS011;10094;48.820;9.226;2023-07-09T23:06:51;13.23;;;6.90;;
19863;SDS011;10094;48.820;9.226;2023-07-09T23:13:34;8.63;;;6.30;;
19863;SDS011;10094;48.820;9.226;2023-07-09T23:20:17;8.82;;;6.97;;
19863;SDS011;10094;48.820;9.226;2023-07-09T23:27:00;16.50;;;7.93;;
19863;SDS011;10094;48.820;9.226;2023-07-09T23:33:42;9.32;;;6.38;;
19863;SDS011;10094;48.820;9.226;2023-07-09T23:40:25;8.45;;;6.38;;
19863;SDS011;10094;48.820;9.226;2023-07-09T23:47:10;10.52;;;5.60;;
19863;SDS011;10094;48.820;9.226;2023-07-09T23:53:54;10.02;;;5.32;;
